Time;durP1;ratioP1;P1;durP2;ratioP2;P2;SDS_P1;SDS_P2;PMS_P1;PMS_P2;Temp;Humidity;BMP_temperature;BMP_pressure;BME280_temperature;BME280_humidity;BME280_pressure;Samples;Min_cycle;Max_cycle;Signal;HPM_P1;HPM_P2
2022/03/27 00:02:45;;;;;;;2.92;2.60;;;22.20;29.40;;;;;;6313936;27;20058;-40
2022/03/27 00:05:47;;;;;;;2.80;2.40;;;22.30;29.40;;;;;;6319338;27;20034;-40
2022/03/27 00:08:49;;;;;;;3.40;2.67;;;22.30;29.40;;;;;;6319355;27;20328;-40
2022/03/27 00:11:51;;;;;;;3.03;2.72;;;22.30;29.40;;;;;;6318793;27;20138;-40
2022/03/27 00:14:52;;;;;;;3.17;2.45;;;22.20;29.40;;;;;;6319623;27;20055;-40
2022/03/27 00:17:54;;;;;;;;;;;22.20;29.40;;;;;;6318739;27;20748;-40
2022/03/27 00:20:55;;;;;;;2.95;2.53;;;22.20;29.40;;;;;;6319392;27;19934;-41
2022/03/27 00:23:57;;;;;;;2.80;2.45;;;22.20;29.50;;;;;;6323555;27;20034;-40
2022/03/27 00:26:59;;;;;;;2.80;2.28;;;22.20;29.50;;;;;;6321757;27;20069;-40
2022/03/27 00:30:01;;;;;;;2.28;1.88;;;22.20;29.60;;;;;;6321399;27;20027;-40
2022/03/27 00:33:03;;;;;;;2.88;2.20;;;22.10;29.50;;;;;;6303358;27;20950;-40
2022/03/27 00:36:07;;;;;;;2.40;2.15;;;22.20;29.50;;;;;;6318304;27;20050;-42
2022/03/27 00:39:08;;;;;;;2.45;2.08;;;22.20;29.60;;;;;;6320152;27;20101;-40
2022/03/27 00:42:10;;;;;;;;;;;22.20;29.50;;;;;;6326098;27;20070;-40
2022/03/27 00:45:12;;;;;;;2.88;2.00;;;22.20;29.60;;;;;;6324451;27;19952;-40
2022/03/27 00:48:14;;;;;;;2.53;1.92;;;22.20;29.60;;;;;;6323045;27;20304;-40
2022/03/27 00:51:15;;;;;;;1.95;1.75;;;22.20;29.60;;;;;;6303534;27;20828;-40
2022/03/27 00:54:17;;;;;;;2.03;1.67;;;22.20;29.60;;;;;;6318968;27;20142;-40
2022/03/27 00:57:19;;;;;;;;;;;22.20;29.60;;;;;;6317483;27;20074;-41
2022/03/27 01:00:47;;;;;;;2.50;1.80;;;22.20;29.60;;;;;;6302547;27;20966;-41
2022/03/27 01:03:49;;;;;;;2.10;1.90;;;22.20;29.60;;;;;;6306870;27;20039;-40
2022/03/27 01:06:50;;;;;;;2.05;1.70;;;22.00;29.60;;;;;;6325127;27;20031;-40
2022/03/27 01:09:53;;;;;;;2.05;1.80;;;22.10;29.60;;;;;;6325250;27;20038;-43
2022/03/27 01:12:56;;;;;;;2.67;1.92;;;22.20;29.70;;;;;;6322485;27;20050;-40
2022/03/27 01:15:58;;;;;;;1.98;1.70;;;22.20;29.70;;;;;;6326206;27;20027;-45
2022/03/27 01:19:01;;;;;;;2.60;1.92;;;22.00;29.70;;;;;;6321660;27;20234;-40
2022/03/27 01:22:03;;;;;;;2.72;1.85;;;22.10;29.80;;;;;;6321461;27;20042;-40
2022/03/27 01:25:05;;;;;;;2.13;1.83;;;22.10;29.70;;;;;;6324011;27;21044;-40
2022/03/27 01:28:09;;;;;;;2.13;1.50;;;22.10;29.70;;;;;;6323184;27;20151;-40
2022/03/27 01:31:10;;;;;;;1.80;1.70;;;22.10;29.80;;;;;;6324019;27;20101;-41
2022/03/27 01:34:12;;;;;;;2.20;1.80;;;22.00;29.80;;;;;;6321095;27;20074;-42
2022/03/27 01:37:14;;;;;;;;;;;22.10;29.80;;;;;;6321681;27;20142;-40
2022/03/27 01:40:17;;;;;;;2.28;1.48;;;22.00;29.80;;;;;;6311493;27;19923;-41
2022/03/27 01:43:19;;;;;;;2.10;1.80;;;22.10;29.80;;;;;;6284948;27;20078;-40
2022/03/27 01:46:21;;;;;;;2.13;1.70;;;22.10;29.90;;;;;;6318913;27;20968;-41
2022/03/27 01:49:24;;;;;;;2.13;1.60;;;22.00;29.90;;;;;;6303729;27;20867;-40
2022/03/27 01:52:26;;;;;;;2.80;2.05;;;22.00;29.90;;;;;;6322871;27;20061;-40
2022/03/27 01:55:28;;;;;;;1.58;1.40;;;22.00;30.00;;;;;;6324357;27;20612;-39
2022/03/27 01:58:30;;;;;;;1.90;1.60;;;22.10;30.20;;;;;;6325446;27;20066;-41
2022/03/27 02:01:32;;;;;;;1.95;1.70;;;22.00;30.00;;;;;;6294723;27;20033;-40
2022/03/27 02:04:34;;;;;;;1.77;1.50;;;21.90;30.00;;;;;;6297431;27;20138;-41
2022/03/27 02:07:37;;;;;;;2.08;1.77;;;22.00;30.00;;;;;;6318179;27;21017;-41
2022/03/27 02:10:40;;;;;;;2.22;1.70;;;21.90;30.00;;;;;;6315560;27;20802;-40
2022/03/27 02:13:42;;;;;;;1.58;1.45;;;22.00;30.00;;;;;;6301437;27;20031;-40
2022/03/27 02:16:43;;;;;;;1.92;1.70;;;22.00;30.10;;;;;;6319691;27;20117;-42
2022/03/27 02:19:45;;;;;;;1.77;1.40;;;22.00;30.10;;;;;;6315773;27;20111;-40
2022/03/27 02:22:47;;;;;;;1.60;1.25;;;21.90;30.00;;;;;;6322177;27;20157;-41
2022/03/27 02:25:49;;;;;;;1.95;1.40;;;21.90;30.10;;;;;;6318688;27;20059;-40
2022/03/27 02:28:51;;;;;;;2.22;1.67;;;21.90;30.10;;;;;;6289640;27;20063;-39
2022/03/27 02:31:54;;;;;;;;;;;22.00;30.10;;;;;;6325816;27;20043;-43
2022/03/27 02:34:55;;;;;;;1.90;1.50;;;21.80;30.00;;;;;;6323104;27;21493;-40
2022/03/27 02:37:58;;;;;;;;;;;22.00;30.10;;;;;;6328710;27;20737;-40
2022/03/27 02:40:59;;;;;;;1.73;1.50;;;22.00;30.10;;;;;;6327498;27;19927;-39
2022/03/27 02:44:01;;;;;;;;;;;21.80;30.00;;;;;;6325535;27;20142;-40
2022/03/27 02:47:04;;;;;;;1.77;1.48;;;22.00;30.20;;;;;;6325707;27;19919;-45
2022/03/27 02:50:07;;;;;;;2.58;1.52;;;21.90;30.10;;;;;;6322425;27;20578;-43
2022/03/27 02:53:09;;;;;;;1.77;1.38;;;21.90;30.20;;;;;;6295368;27;20142;-40
2022/03/27 02:56:10;;;;;;;2.00;1.58;;;21.90;30.30;;;;;;6312000;27;20503;-40
2022/03/27 02:59:12;;;;;;;1.70;1.50;;;21.80;30.30;;;;;;6292440;27;20322;-40
2022/03/27 03:02:14;;;;;;;2.00;1.40;;;21.80;30.30;;;;;;6303370;27;20043;-42
2022/03/27 03:05:16;;;;;;;2.03;1.52;;;21.90;30.40;;;;;;6313479;27;20043;-40
2022/03/27 03:08:19;;;;;;;1.83;1.63;;;21.90;30.50;;;;;;6313688;27;20042;-41
2022/03/27 03:11:21;;;;;;;1.65;1.33;;;21.90;30.40;;;;;;6318213;27;20470;-41
2022/03/27 03:14:23;;;;;;;1.92;1.50;;;21.90;30.50;;;;;;6315778;27;20352;-40
2022/03/27 03:17:28;;;;;;;1.83;1.40;;;21.90;30.50;;;;;;6313996;27;20341;-40
2022/03/27 03:20:30;;;;;;;1.67;1.30;;;21.90;30.50;;;;;;6314885;27;20065;-40
2022/03/27 03:23:32;;;;;;;1.65;1.38;;;21.80;30.50;;;;;;6320552;27;20046;-40
2022/03/27 03:26:34;;;;;;;1.58;1.20;;;21.90;30.60;;;;;;6315385;27;20147;-41
2022/03/27 03:29:36;;;;;;;1.70;1.30;;;21.80;30.60;;;;;;6305708;27;20057;-40
2022/03/27 03:32:37;;;;;;;2.15;1.55;;;21.90;30.70;;;;;;6316321;27;20205;-40
2022/03/27 03:35:39;;;;;;;;;;;21.90;30.70;;;;;;6316099;27;20442;-40
2022/03/27 03:38:45;;;;;;;1.42;1.10;;;21.70;30.50;;;;;;6316172;27;20792;-40
2022/03/27 03:41:46;;;;;;;1.67;1.35;;;21.80;30.60;;;;;;6314934;27;21097;-40
2022/03/27 03:44:58;;;;;;;1.90;1.50;;;21.90;30.70;;;;;;6315241;27;20106;-40
2022/03/27 03:48:00;;;;;;;1.98;1.20;;;21.80;30.70;;;;;;6315494;27;20436;-43
2022/03/27 03:51:02;;;;;;;1.83;1.50;;;21.80;30.70;;;;;;6294665;27;20260;-42
2022/03/27 03:54:06;;;;;;;1.98;1.60;;;21.80;30.80;;;;;;6316084;27;21723;-41
2022/03/27 03:57:09;;;;;;;1.80;1.50;;;21.80;30.80;;;;;;6315108;27;21452;-43
2022/03/27 04:00:11;;;;;;;1.67;1.50;;;21.80;30.90;;;;;;6261734;27;20928;-40
2022/03/27 04:03:14;;;;;;;1.83;1.40;;;21.80;30.90;;;;;;6304989;27;20090;-41
2022/03/27 04:06:16;;;;;;;1.58;1.30;;;21.80;30.90;;;;;;6308075;27;20682;-42
2022/03/27 04:09:20;;;;;;;1.67;1.30;;;21.80;30.90;;;;;;6309366;27;20091;-40
2022/03/27 04:12:21;;;;;;;2.08;1.50;;;21.60;30.80;;;;;;6305286;27;20737;-41
2022/03/27 04:15:23;;;;;;;;;;;21.90;31.00;;;;;;6311660;27;20160;-40
2022/03/27 04:18:45;;;;;;;1.70;1.30;;;21.80;31.00;;;;;;6296470;27;19930;-40
2022/03/27 04:21:47;;;;;;;1.63;1.33;;;21.80;31.00;;;;;;6309752;27;20116;-40
2022/03/27 04:24:49;;;;;;;1.55;1.38;;;21.80;31.10;;;;;;6309740;27;20043;-40
2022/03/27 04:27:51;;;;;;;1.67;1.55;;;21.70;31.00;;;;;;6306894;27;20077;-40
2022/03/27 04:30:53;;;;;;;2.03;1.50;;;21.70;31.00;;;;;;6309485;27;20266;-42
2022/03/27 04:33:55;;;;;;;1.98;1.42;;;21.60;31.00;;;;;;6306382;27;20466;-40
2022/03/27 04:36:56;;;;;;;2.17;1.80;;;21.70;31.10;;;;;;6304696;27;20142;-41
2022/03/27 04:40:02;;;;;;;;;;;21.60;31.10;;;;;;6308468;27;20331;-40
2022/03/27 04:43:05;;;;;;;2.38;1.55;;;21.70;31.20;;;;;;6310259;27;20205;-40
2022/03/27 04:46:07;;;;;;;1.30;1.20;;;21.70;31.10;;;;;;6307641;27;20877;-40
2022/03/27 04:49:09;;;;;;;1.98;1.65;;;21.60;31.20;;;;;;6308823;27;20367;-40
2022/03/27 04:52:12;;;;;;;1.65;1.50;;;21.60;31.20;;;;;;6307761;27;20343;-41
2022/03/27 04:55:14;;;;;;;1.33;1.20;;;21.60;31.20;;;;;;6304857;27;20497;-40
2022/03/27 04:58:16;;;;;;;1.80;1.48;;;21.50;31.10;;;;;;6296301;27;20412;-40
2022/03/27 05:01:18;;;;;;;1.55;1.30;;;21.60;31.20;;;;;;6285407;27;20162;-40
2022/03/27 05:04:20;;;;;;;1.42;1.33;;;21.60;31.30;;;;;;6297433;27;20055;-40
2022/03/27 05:07:21;;;;;;;;;;;21.60;31.30;;;;;;6304806;27;20154;-40
2022/03/27 05:10:23;;;;;;;1.40;1.25;;;21.60;31.30;;;;;;6305861;27;20670;-40
2022/03/27 05:13:26;;;;;;;1.77;1.52;;;21.60;31.30;;;;;;6305850;27;20323;-40
2022/03/27 05:16:27;;;;;;;1.65;1.40;;;21.60;31.30;;;;;;6310685;27;20162;-42
2022/03/27 05:19:29;;;;;;;2.13;1.63;;;21.60;31.40;;;;;;6308185;27;20039;-40
2022/03/27 05:22:31;;;;;;;2.17;1.70;;;21.50;31.30;;;;;;6306722;27;20425;-43
2022/03/27 05:25:40;;;;;;;2.08;1.40;;;21.50;31.40;;;;;;6308955;27;20116;-40
2022/03/27 05:28:42;;;;;;;1.60;1.38;;;21.50;31.40;;;;;;6298758;27;20509;-40
2022/03/27 05:31:45;;;;;;;;;;;21.50;31.50;;;;;;6287012;27;20039;-42
2022/03/27 05:34:46;;;;;;;1.83;1.50;;;21.50;31.50;;;;;;6308393;27;20518;-41
2022/03/27 05:37:48;;;;;;;;;;;21.50;31.50;;;;;;6309346;27;20808;-40
2022/03/27 05:40:50;;;;;;;;;;;21.50;31.50;;;;;;6300828;27;19930;-41
2022/03/27 05:43:52;;;;;;;1.95;1.35;;;21.50;31.50;;;;;;6306217;27;20425;-41
2022/03/27 05:46:54;;;;;;;1.35;1.23;;;21.50;31.40;;;;;;6304088;27;20253;-40
2022/03/27 05:49:56;;;;;;;2.00;1.55;;;21.50;31.50;;;;;;6282503;27;20108;-40
2022/03/27 05:52:57;;;;;;;1.40;1.30;;;21.40;31.60;;;;;;6304702;27;20649;-40
2022/03/27 05:56:00;;;;;;;1.77;1.52;;;21.50;31.80;;;;;;6307292;27;20027;-39
2022/03/27 05:59:01;;;;;;;1.85;1.45;;;21.40;31.60;;;;;;6300345;27;20349;-41
2022/03/27 06:02:03;;;;;;;1.45;1.30;;;21.50;31.70;;;;;;6303139;27;20046;-40
2022/03/27 06:05:06;;;;;;;1.98;1.70;;;21.40;31.70;;;;;;6303640;27;20066;-40
2022/03/27 06:08:08;;;;;;;1.45;1.20;;;21.40;31.70;;;;;;6285296;27;20303;-40
2022/03/27 06:11:10;;;;;;;1.63;1.50;;;21.40;31.70;;;;;;6300389;27;21271;-40
2022/03/27 06:14:12;;;;;;;2.55;1.48;;;21.40;31.70;;;;;;6308360;27;20903;-41
2022/03/27 06:17:13;;;;;;;;;;;21.40;31.80;;;;;;6305863;27;20549;-40
2022/03/27 06:20:17;;;;;;;2.13;1.77;;;21.40;31.70;;;;;;6308087;27;20227;-39
2022/03/27 06:23:19;;;;;;;2.38;1.85;;;21.40;31.70;;;;;;6287912;27;20878;-40
2022/03/27 06:26:22;;;;;;;1.80;1.40;;;21.40;31.70;;;;;;6308001;27;20059;-40
2022/03/27 06:29:23;;;;;;;1.75;1.40;;;21.40;31.80;;;;;;6275269;27;20047;-40
2022/03/27 06:32:26;;;;;;;1.50;1.40;;;21.30;31.80;;;;;;6294210;27;20400;-40
2022/03/27 06:35:28;;;;;;;1.52;1.40;;;21.40;31.90;;;;;;6305752;27;20249;-41
2022/03/27 06:38:30;;;;;;;1.60;1.30;;;21.40;31.90;;;;;;6303344;27;20557;-40
2022/03/27 06:41:32;;;;;;;1.67;1.20;;;21.40;31.90;;;;;;6303479;27;20039;-40
2022/03/27 06:44:33;;;;;;;2.17;1.50;;;21.40;31.90;;;;;;6302414;27;20081;-40
2022/03/27 06:47:35;;;;;;;;;;;21.30;31.90;;;;;;6302553;27;20382;-42
2022/03/27 06:50:36;;;;;;;1.60;1.20;;;21.30;31.90;;;;;;6304585;27;20027;-40
2022/03/27 06:53:38;;;;;;;1.42;1.10;;;21.40;31.90;;;;;;6303675;27;20429;-40
2022/03/27 06:56:41;;;;;;;1.60;1.40;;;21.30;31.90;;;;;;6304598;27;20054;-41
2022/03/27 07:03:03;;;;;;;1.55;1.35;;;21.40;32.00;;;;;;6272138;27;20441;-40
2022/03/27 07:06:05;;;;;;;1.60;1.40;;;21.30;31.90;;;;;;6304121;27;20193;-40
2022/03/27 07:09:06;;;;;;;;;;;21.30;31.90;;;;;;6301523;27;20189;-40
2022/03/27 07:12:09;;;;;;;1.88;1.30;;;21.40;32.00;;;;;;6298451;27;20577;-40
2022/03/27 07:15:11;;;;;;;1.58;1.40;;;21.30;31.90;;;;;;6303755;27;20171;-40
2022/03/27 07:18:18;;;;;;;1.65;1.40;;;21.40;32.00;;;;;;6305286;27;20487;-41
2022/03/27 07:21:20;;;;;;;1.40;1.30;;;21.30;32.00;;;;;;6310180;27;20043;-41
2022/03/27 07:24:21;;;;;;;1.50;1.38;;;21.30;32.10;;;;;;6309062;27;20241;-40
2022/03/27 07:27:24;;;;;;;1.75;1.38;;;21.40;32.10;;;;;;6310685;27;20160;-40
2022/03/27 07:30:25;;;;;;;1.30;1.02;;;21.30;32.10;;;;;;6274568;27;20871;-40
2022/03/27 07:33:27;;;;;;;1.67;1.20;;;21.40;32.20;;;;;;6306582;27;20554;-40
2022/03/27 07:36:30;;;;;;;1.45;1.35;;;21.30;32.10;;;;;;6304848;27;20705;-40
2022/03/27 07:39:32;;;;;;;2.00;1.40;;;21.40;32.20;;;;;;6299912;27;20038;-40
2022/03/27 07:42:34;;;;;;;;;;;21.30;32.20;;;;;;6308928;27;20602;-40
2022/03/27 07:45:36;;;;;;;1.95;1.50;;;21.20;32.20;;;;;;6306094;27;20707;-40
2022/03/27 07:48:38;;;;;;;1.42;1.10;;;21.30;32.20;;;;;;6302829;27;20311;-42
2022/03/27 07:51:40;;;;;;;2.20;1.35;;;21.40;32.20;;;;;;6303712;27;20112;-40
2022/03/27 07:54:41;;;;;;;1.77;1.30;;;21.40;32.30;;;;;;6306269;27;20075;-40
2022/03/27 07:57:44;;;;;;;1.33;1.17;;;21.40;32.30;;;;;;6306264;27;20050;-40
2022/03/27 08:00:45;;;;;;;1.60;1.30;;;21.40;32.30;;;;;;6304720;27;20602;-41
2022/03/27 08:03:47;;;;;;;1.60;1.25;;;21.40;32.30;;;;;;6303132;27;20047;-42
2022/03/27 08:06:51;;;;;;;1.27;1.10;;;21.50;32.40;;;;;;6302410;27;20417;-40
2022/03/27 08:09:52;;;;;;;1.52;1.38;;;21.60;33.00;;;;;;6303067;27;20546;-40
2022/03/27 08:12:54;;;;;;;;;;;21.50;32.40;;;;;;6304226;27;21460;-41
2022/03/27 08:15:55;;;;;;;1.30;1.10;;;21.50;32.30;;;;;;6308117;27;19926;-40
2022/03/27 08:18:57;;;;;;;2.10;1.27;;;21.40;32.10;;;;;;6310783;27;20392;-41
2022/03/27 08:22:00;;;;;;;1.80;1.10;;;21.60;32.20;;;;;;6309250;27;20094;-41
2022/03/27 08:25:02;;;;;;;1.77;1.48;;;21.50;32.20;;;;;;6289446;27;20146;-42
2022/03/27 08:28:05;;;;;;;1.88;1.33;;;21.50;32.20;;;;;;6276537;27;20225;-41
2022/03/27 08:31:06;;;;;;;1.88;1.38;;;21.60;32.20;;;;;;6296727;27;20977;-42
2022/03/27 08:34:08;;;;;;;1.50;1.25;;;21.70;32.30;;;;;;6304737;27;20735;-40
2022/03/27 08:37:13;;;;;;;1.40;1.10;;;21.70;32.30;;;;;;6301139;27;20938;-40
2022/03/27 08:40:17;;;;;;;1.13;0.98;;;21.80;32.30;;;;;;6305661;27;20505;-44
2022/03/27 08:43:20;;;;;;;1.52;1.23;;;21.80;32.30;;;;;;6304637;27;20279;-40
2022/03/27 08:46:21;;;;;;;1.38;1.15;;;21.80;32.30;;;;;;6305468;27;20358;-40
2022/03/27 08:49:37;;;;;;;1.63;1.15;;;21.90;32.40;;;;;;6303808;27;20776;-40
2022/03/27 08:52:48;;;;;;;1.35;1.25;;;21.90;32.40;;;;;;6285820;27;20581;-41
2022/03/27 08:55:57;;;;;;;1.48;0.90;;;21.90;32.40;;;;;;6303476;27;20664;-41
2022/03/27 08:59:06;;;;;;;1.33;1.10;;;21.90;32.30;;;;;;6306506;27;20297;-39
2022/03/27 09:02:07;;;;;;;1.42;1.13;;;22.00;32.40;;;;;;6287970;27;20440;-40
2022/03/27 09:05:09;;;;;;;1.55;1.40;;;21.90;32.40;;;;;;6279270;27;21891;-41
2022/03/27 09:08:12;;;;;;;2.05;1.10;;;22.00;32.40;;;;;;6296641;27;20239;-40
2022/03/27 09:11:18;;;;;;;1.27;1.00;;;22.10;32.40;;;;;;6299260;27;20043;-41
2022/03/27 09:14:20;;;;;;;1.48;1.27;;;22.10;32.50;;;;;;6286666;27;20369;-41
2022/03/27 09:17:22;;;;;;;1.58;1.15;;;22.10;32.50;;;;;;6303657;27;20358;-40
2022/03/27 09:20:33;;;;;;;1.20;1.00;;;22.10;32.50;;;;;;6299557;27;20233;-40
2022/03/27 09:23:35;;;;;;;;;;;22.00;32.50;;;;;;6281990;27;20038;-41
2022/03/27 09:26:37;;;;;;;1.40;1.10;;;22.20;32.80;;;;;;6303374;27;19927;-43
2022/03/27 09:29:57;;;;;;;1.77;1.13;;;22.20;32.50;;;;;;6304500;27;20046;-41
2022/03/27 09:32:58;;;;;;;1.60;1.15;;;22.20;32.60;;;;;;6289278;27;20233;-43
2022/03/27 09:36:04;;;;;;;;;;;22.20;32.50;;;;;;6300042;27;20146;-40
2022/03/27 09:39:08;;;;;;;1.75;1.00;;;22.30;32.60;;;;;;6300690;27;20435;-41
2022/03/27 09:42:16;;;;;;;1.65;1.42;;;22.20;32.50;;;;;;6268286;27;20460;-40
2022/03/27 09:45:21;;;;;;;1.33;1.10;;;22.30;33.30;;;;;;6303839;27;20469;-41
2022/03/27 09:48:22;;;;;;;1.20;1.00;;;22.30;32.70;;;;;;6282237;27;20363;-40
2022/03/27 09:51:24;;;;;;;1.08;0.98;;;22.30;32.70;;;;;;6305168;27;20256;-40
2022/03/27 09:54:28;;;;;;;1.30;1.00;;;22.30;32.70;;;;;;6302958;27;20145;-40
2022/03/27 09:57:31;;;;;;;1.20;1.08;;;22.40;32.80;;;;;;6283647;27;20349;-42
2022/03/27 10:00:33;;;;;;;1.77;1.35;;;22.40;32.80;;;;;;6285834;27;20605;-40
2022/03/27 10:03:35;;;;;;;1.10;1.00;;;22.40;32.80;;;;;;6292946;27;20322;-40
2022/03/27 10:06:39;;;;;;;1.00;0.90;;;22.50;32.90;;;;;;6281944;27;20039;-40
2022/03/27 10:09:40;;;;;;;2.05;1.40;;;22.30;32.80;;;;;;6284001;27;20074;-40
2022/03/27 10:12:43;;;;;;;;;;;22.40;32.80;;;;;;6294859;27;20162;-42
2022/03/27 10:15:46;;;;;;;1.40;1.10;;;22.40;32.80;;;;;;6275886;27;20488;-40
2022/03/27 10:18:48;;;;;;;1.58;1.20;;;22.50;32.80;;;;;;6301635;27;20459;-40
2022/03/27 10:21:52;;;;;;;1.33;1.20;;;22.50;32.80;;;;;;6309648;27;20039;-42
2022/03/27 10:25:00;;;;;;;1.90;1.40;;;22.50;32.90;;;;;;6303502;27;20039;-40
2022/03/27 10:28:04;;;;;;;1.55;1.35;;;22.50;32.80;;;;;;6288361;27;20145;-40
2022/03/27 10:31:08;;;;;;;1.25;1.15;;;22.60;32.90;;;;;;6308244;27;20043;-41
2022/03/27 10:34:14;;;;;;;2.33;1.23;;;22.60;32.90;;;;;;6307228;27;21148;-40
2022/03/27 10:37:26;;;;;;;1.17;1.02;;;22.60;32.90;;;;;;6305202;27;20154;-41
2022/03/27 10:40:35;;;;;;;1.77;1.58;;;22.50;32.80;;;;;;6287597;27;21639;-40
2022/03/27 10:43:44;;;;;;;1.98;1.48;;;22.60;32.80;;;;;;6306067;27;20093;-40
2022/03/27 10:47:11;;;;;;;1.73;1.60;;;22.60;32.70;;;;;;6285330;27;20917;-40
2022/03/27 10:50:24;;;;;;;2.00;1.35;;;22.60;32.70;;;;;;6281541;27;20736;-41
2022/03/27 10:53:26;;;;;;;1.73;1.30;;;22.70;32.70;;;;;;6308266;27;20413;-40
2022/03/27 10:56:34;;;;;;;1.73;1.48;;;22.50;32.70;;;;;;6308403;27;20482;-40
2022/03/27 10:59:43;;;;;;;2.10;1.52;;;22.70;32.80;;;;;;6273382;27;20982;-41
2022/03/27 11:02:46;;;;;;;1.60;1.30;;;22.60;32.70;;;;;;6282124;27;20932;-40
2022/03/27 11:06:03;;;;;;;2.20;1.65;;;22.70;32.80;;;;;;6266335;27;20281;-40
2022/03/27 11:09:07;;;;;;;1.85;1.65;;;22.70;32.80;;;;;;6288753;27;20159;-41
2022/03/27 11:12:29;;;;;;;1.50;1.40;;;22.70;32.80;;;;;;6306525;27;20456;-40
2022/03/27 11:16:02;;;;;;;2.17;1.67;;;22.70;32.90;;;;;;6307778;27;20050;-42
2022/03/27 11:19:04;;;;;;;1.75;1.40;;;22.80;33.00;;;;;;6282242;27;20043;-41
2022/03/27 11:22:06;;;;;;;1.92;1.50;;;22.80;33.60;;;;;;6303703;27;20032;-41
2022/03/27 11:25:24;;;;;;;2.72;1.55;;;22.80;33.10;;;;;;6304649;27;20328;-41
2022/03/27 11:28:42;;;;;;;1.50;1.20;;;22.90;33.20;;;;;;6309925;27;20052;-43
2022/03/27 11:31:43;;;;;;;1.50;1.33;;;22.90;33.10;;;;;;6287767;27;20127;-41
2022/03/27 11:35:15;;;;;;;1.33;1.17;;;22.80;33.00;;;;;;6313258;27;20078;-41
2022/03/27 11:38:23;;;;;;;2.00;1.40;;;22.90;33.10;;;;;;6295057;27;20394;-41
2022/03/27 11:41:26;;;;;;;2.03;1.63;;;22.90;33.00;;;;;;6274268;27;20629;-43
2022/03/27 11:47:49;;;;;;;1.58;1.17;;;22.90;33.00;;;;;;6258665;27;20083;-42
2022/03/27 11:50:54;;;;;;;1.30;1.20;;;23.00;33.10;;;;;;6280863;27;20380;-40
2022/03/27 11:53:57;;;;;;;1.30;1.20;;;23.00;33.00;;;;;;6296155;27;20525;-41
2022/03/27 11:57:01;;;;;;;1.40;1.02;;;23.00;33.00;;;;;;6284241;27;20116;-42
2022/03/27 12:00:03;;;;;;;1.20;1.00;;;22.90;32.90;;;;;;6283445;27;20398;-41
2022/03/27 12:03:14;;;;;;;1.70;1.50;;;23.00;32.90;;;;;;6308377;27;20170;-40
2022/03/27 12:06:18;;;;;;;0.88;0.75;;;23.00;32.90;;;;;;6274865;27;20039;-40
2022/03/27 12:09:24;;;;;;;1.73;1.40;;;23.00;32.90;;;;;;6305413;27;20042;-43
2022/03/27 12:12:28;;;;;;;1.27;0.75;;;23.10;32.90;;;;;;6306613;27;20599;-40
2022/03/27 12:15:36;;;;;;;1.20;1.10;;;23.00;32.80;;;;;;6287900;27;20372;-43
2022/03/27 12:18:39;;;;;;;1.23;1.10;;;23.10;32.90;;;;;;6303578;27;20074;-40
2022/03/27 12:21:45;;;;;;;1.40;1.10;;;23.10;32.90;;;;;;6285112;27;20127;-42
2022/03/27 12:24:47;;;;;;;1.00;0.90;;;23.10;32.90;;;;;;6303290;27;20513;-40
2022/03/27 12:31:23;;;;;;;1.00;0.77;;;23.10;32.80;;;;;;6302079;27;20287;-40
2022/03/27 12:34:25;;;;;;;0.77;0.77;;;23.20;32.80;;;;;;6286067;27;20235;-42
2022/03/27 12:37:30;;;;;;;1.45;1.00;;;23.20;32.80;;;;;;6295413;27;20295;-41
2022/03/27 12:40:42;;;;;;;0.93;0.82;;;23.10;32.80;;;;;;6281414;27;20657;-42
2022/03/27 12:43:56;;;;;;;1.00;0.80;;;23.20;32.80;;;;;;6279088;27;20528;-41
2022/03/27 12:46:58;;;;;;;1.17;1.08;;;23.20;32.90;;;;;;6290256;27;20326;-42
2022/03/27 12:50:00;;;;;;;1.25;1.02;;;23.20;32.80;;;;;;6306203;27;20135;-40
2022/03/27 12:53:05;;;;;;;1.15;1.05;;;23.30;32.90;;;;;;6304036;27;20999;-41
2022/03/27 12:56:09;;;;;;;1.20;1.10;;;23.30;32.80;;;;;;6262676;27;20093;-41
2022/03/27 12:59:19;;;;;;;1.33;1.20;;;23.20;32.80;;;;;;6298103;27;20159;-41
2022/03/27 13:02:26;;;;;;;2.00;1.17;;;23.30;32.90;;;;;;6300721;27;20067;-40
2022/03/27 13:05:28;;;;;;;1.88;1.58;;;23.30;33.00;;;;;;6290556;27;21215;-41
2022/03/27 13:08:32;;;;;;;1.83;1.65;;;23.20;32.90;;;;;;6272480;27;20107;-41
2022/03/27 13:11:39;;;;;;;2.30;1.98;;;23.30;33.00;;;;;;6275425;27;20047;-40
2022/03/27 13:14:44;;;;;;;2.20;1.80;;;23.30;33.00;;;;;;6284902;27;20458;-42
2022/03/27 13:17:45;;;;;;;2.53;1.85;;;23.30;33.00;;;;;;6285510;27;20187;-43
2022/03/27 13:20:47;;;;;;;2.50;2.10;;;23.30;33.00;;;;;;6295418;27;20319;-44
2022/03/27 13:23:49;;;;;;;3.38;2.75;;;23.40;33.80;;;;;;6282621;27;20235;-41
2022/03/27 13:26:54;;;;;;;3.30;2.60;;;23.40;33.10;;;;;;6303954;27;20145;-41
2022/03/27 13:29:56;;;;;;;3.15;2.85;;;23.40;33.20;;;;;;6284395;27;20202;-42
2022/03/27 13:32:59;;;;;;;4.10;3.10;;;23.40;33.20;;;;;;6283583;27;20378;-41
2022/03/27 13:36:00;;;;;;;4.35;3.38;;;23.40;33.20;;;;;;6284217;27;20039;-41
2022/03/27 13:39:05;;;;;;;4.50;3.42;;;23.50;33.20;;;;;;6304680;27;20037;-42
2022/03/27 13:45:24;;;;;;;4.40;3.50;;;23.50;33.30;;;;;;6302085;27;20059;-43
2022/03/27 13:48:26;;;;;;;4.70;3.72;;;23.40;33.20;;;;;;6285749;27;20348;-41
2022/03/27 13:51:28;;;;;;;4.30;3.83;;;23.40;33.30;;;;;;6304771;27;20067;-41
2022/03/27 13:54:30;;;;;;;4.22;3.38;;;23.40;33.30;;;;;;6288419;27;20331;-41
2022/03/27 13:57:31;;;;;;;4.13;3.05;;;23.40;33.30;;;;;;6297975;27;20298;-40
2022/03/27 14:00:34;;;;;;;4.20;3.80;;;23.50;33.40;;;;;;6304315;27;20079;-41
2022/03/27 14:03:36;;;;;;;3.38;3.08;;;23.40;33.30;;;;;;6305818;27;20849;-42
2022/03/27 14:06:39;;;;;;;3.95;3.50;;;23.50;33.40;;;;;;6303035;27;20373;-41
2022/03/27 14:09:41;;;;;;;4.20;3.30;;;23.40;33.40;;;;;;6285404;27;20155;-42
2022/03/27 14:12:43;;;;;;;4.30;3.63;;;23.60;33.50;;;;;;6302202;27;20433;-41
2022/03/27 14:15:45;;;;;;;4.15;3.38;;;23.60;33.40;;;;;;6297069;27;20421;-42
2022/03/27 14:18:47;;;;;;;4.57;3.38;;;23.60;33.50;;;;;;6303433;27;20255;-41
2022/03/27 14:21:49;;;;;;;4.22;3.20;;;23.60;33.40;;;;;;6278167;27;20278;-41
2022/03/27 14:24:52;;;;;;;4.30;3.35;;;23.60;33.40;;;;;;6299074;27;20035;-42
2022/03/27 14:27:56;;;;;;;4.22;3.60;;;23.70;33.40;;;;;;6308860;27;20479;-41
2022/03/27 14:30:58;;;;;;;3.95;3.22;;;23.60;33.40;;;;;;6292776;27;20326;-42
2022/03/27 14:34:00;;;;;;;3.95;3.42;;;23.60;33.40;;;;;;6299494;27;20042;-41
2022/03/27 14:37:04;;;;;;;4.10;3.28;;;23.60;33.40;;;;;;6311004;27;21065;-42
2022/03/27 14:40:09;;;;;;;4.10;3.50;;;23.70;33.50;;;;;;6306713;27;20332;-42
2022/03/27 14:43:10;;;;;;;4.18;3.60;;;23.70;33.60;;;;;;6291252;27;20387;-41
2022/03/27 14:46:13;;;;;;;4.20;3.53;;;23.70;33.60;;;;;;6309404;27;20478;-42
2022/03/27 14:49:15;;;;;;;3.65;3.10;;;23.70;33.60;;;;;;6306947;27;20502;-41
2022/03/27 14:52:17;;;;;;;4.15;3.45;;;23.70;33.70;;;;;;6287822;27;20447;-41
2022/03/27 14:58:36;;;;;;;3.65;3.08;;;23.70;33.70;;;;;;6297347;27;20657;-42
2022/03/27 15:01:37;;;;;;;5.13;3.88;;;23.70;33.70;;;;;;6300536;27;20971;-42
2022/03/27 15:04:39;;;;;;;4.55;3.45;;;23.70;33.60;;;;;;6288229;27;20101;-42
2022/03/27 15:07:42;;;;;;;4.53;3.63;;;23.80;33.70;;;;;;6302712;27;20514;-41
2022/03/27 15:10:44;;;;;;;3.97;3.22;;;23.80;33.70;;;;;;6290429;27;20270;-40
2022/03/27 15:13:46;;;;;;;4.20;3.25;;;23.80;33.60;;;;;;6296780;27;20586;-41
2022/03/27 15:16:47;;;;;;;3.75;3.17;;;23.80;33.50;;;;;;6305589;27;20201;-41
2022/03/27 15:19:49;;;;;;;3.88;3.22;;;23.80;33.40;;;;;;6299905;27;20874;-41
2022/03/27 15:22:51;;;;;;;3.67;3.35;;;23.80;33.30;;;;;;6301466;27;20446;-41
2022/03/27 15:25:54;;;;;;;4.28;3.35;;;23.80;33.20;;;;;;6274135;27;20181;-43
2022/03/27 15:29:01;;;;;;;3.33;3.03;;;23.80;33.10;;;;;;6304375;27;20063;-41
2022/03/27 15:32:03;;;;;;;4.38;3.47;;;23.80;33.10;;;;;;6306517;27;20145;-40
2022/03/27 15:35:05;;;;;;;3.92;3.08;;;23.70;33.00;;;;;;6304382;27;20050;-41
2022/03/27 15:38:07;;;;;;;3.72;3.33;;;23.70;32.90;;;;;;6303612;27;20588;-41
2022/03/27 15:41:10;;;;;;;4.50;3.33;;;23.80;32.80;;;;;;6302458;27;20066;-40
2022/03/27 15:44:14;;;;;;;3.42;2.95;;;23.90;32.70;;;;;;6304708;27;20556;-42
2022/03/27 15:47:16;;;;;;;4.22;3.30;;;23.80;32.60;;;;;;6286550;27;20310;-41
2022/03/27 15:50:22;;;;;;;3.85;2.95;;;23.80;32.50;;;;;;6304216;27;20236;-42
2022/03/27 15:53:23;;;;;;;2.78;2.30;;;23.90;32.50;;;;;;6285366;27;20203;-41
2022/03/27 15:56:25;;;;;;;2.67;2.45;;;23.80;32.50;;;;;;6304162;27;20047;-40
2022/03/27 15:59:29;;;;;;;2.85;2.45;;;23.80;32.50;;;;;;6304423;27;20370;-40
2022/03/27 16:02:31;;;;;;;2.92;2.17;;;23.80;32.50;;;;;;6305771;27;20066;-41
2022/03/27 16:05:33;;;;;;;2.47;2.00;;;23.80;32.50;;;;;;6314531;27;20131;-41
2022/03/27 16:08:35;;;;;;;2.97;2.50;;;23.80;32.50;;;;;;6308786;27;20040;-41
2022/03/27 16:11:37;;;;;;;2.80;2.20;;;23.80;32.50;;;;;;6313856;27;20073;-43
2022/03/27 16:14:39;;;;;;;2.38;2.03;;;23.80;33.10;;;;;;6272727;27;20051;-42
2022/03/27 16:17:41;;;;;;;2.65;2.10;;;23.90;32.60;;;;;;6308371;27;20142;-41
2022/03/27 16:20:42;;;;;;;2.55;2.20;;;23.80;32.60;;;;;;6309734;27;20089;-41